sensor_id;sensor_type;location;lat;lon;timestamp;pressure;altitude;pressure_sealevel;temperature;humidity
71795;BME280;59641;45.188;5.712;2023-02-26T00:00:13;97937.09;;;10.07;48.92
71795;BME280;59641;45.188;5.712;2023-02-26T00:02:44;97949.94;;;10.05;49.03
71795;BME280;59641;45.188;5.712;2023-02-26T00:05:13;97944.34;;;10.07;48.89
71795;BME280;59641;45.188;5.712;2023-02-26T00:07:39;97951.56;;;10.06;48.78
71795;BME280;59641;45.188;5.712;2023-02-26T00:10:10;97960.66;;;10.05;48.80
71795;BME280;59641;45.188;5.712;2023-02-26T00:12:36;97951.53;;;10.01;48.52
71795;BME280;59641;45.188;5.712;2023-02-26T00:15:02;97937.78;;;9.97;48.53
71795;BME280;59641;45.188;5.712;2023-02-26T00:17:38;97944.22;;;9.96;48.81
71795;BME280;59641;45.188;5.712;2023-02-26T00:20:07;97945.03;;;9.97;48.99
71795;BME280;59641;45.188;5.712;2023-02-26T00:22:33;97937.78;;;9.97;48.84
71795;BME280;59641;45.188;5.712;2023-02-26T00:24:58;97934.38;;;10.02;48.94
71795;BME280;59641;45.188;5.712;2023-02-26T00:27:24;97940.53;;;10.02;48.89
71795;BME280;59641;45.188;5.712;2023-02-26T00:29:49;97945.66;;;10.04;48.95
71795;BME280;59641;45.188;5.712;2023-02-26T00:32:15;97940.59;;;10.08;48.72
71795;BME280;59641;45.188;5.712;2023-02-26T00:34:45;97943.22;;;10.02;48.66
71795;BME280;59641;45.188;5.712;2023-02-26T00:40:13;97945.09;;;10.02;48.36
71795;BME280;59641;45.188;5.712;2023-02-26T00:42:43;97954.75;;;10.03;48.28
71795;BME280;59641;45.188;5.712;2023-02-26T00:45:10;97953.13;;;10.02;48.40
71795;BME280;59641;45.188;5.712;2023-02-26T00:47:48;97942.41;;;10.02;48.44
71795;BME280;59641;45.188;5.712;2023-02-26T00:50:19;97941.28;;;9.98;48.36
71795;BME280;59641;45.188;5.712;2023-02-26T00:53:07;97947.47;;;9.98;48.29
71795;BME280;59641;45.188;5.712;2023-02-26T00:55:37;97948.28;;;9.99;48.36
71795;BME280;59641;45.188;5.712;2023-02-26T00:58:02;97940.47;;;9.97;48.38
71795;BME280;59641;45.188;5.712;2023-02-26T01:00:28;97947.47;;;9.98;48.18
71795;BME280;59641;45.188;5.712;2023-02-26T01:02:54;97952.50;;;9.95;48.15
71795;BME280;59641;45.188;5.712;2023-02-26T01:05:19;97944.97;;;9.92;48.21
71795;BME280;59641;45.188;5.712;2023-02-26T01:10:19;97942.53;;;9.90;48.19
71795;BME280;59641;45.188;5.712;2023-02-26T01:12:45;97941.97;;;9.88;48.02
71795;BME280;59641;45.188;5.712;2023-02-26T01:15:11;97936.06;;;9.86;48.07
71795;BME280;59641;45.188;5.712;2023-02-26T01:17:48;97943.28;;;9.86;47.87
71795;BME280;59641;45.188;5.712;2023-02-26T01:20:22;97950.75;;;9.84;48.18
71795;BME280;59641;45.188;5.712;2023-02-26T01:23:07;97940.03;;;9.84;48.11
71795;BME280;59641;45.188;5.712;2023-02-26T01:28:05;97943.22;;;9.80;47.86
71795;BME280;59641;45.188;5.712;2023-02-26T01:30:31;97943.22;;;9.80;47.89
71795;BME280;59641;45.188;5.712;2023-02-26T01:38:29;97933.38;;;9.64;47.75
71795;BME280;59641;45.188;5.712;2023-02-26T01:43:33;97936.16;;;9.52;47.65
71795;BME280;59641;45.188;5.712;2023-02-26T01:48:55;97918.66;;;9.45;47.44
71795;BME280;59641;45.188;5.712;2023-02-26T01:51:50;97925.59;;;9.41;47.33
71795;BME280;59641;45.188;5.712;2023-02-26T01:54:19;97927.13;;;9.36;47.52
71795;BME280;59641;45.188;5.712;2023-02-26T01:56:49;97916.09;;;9.33;47.41
71795;BME280;59641;45.188;5.712;2023-02-26T01:59:17;97924.41;;;9.31;47.50
71795;BME280;59641;45.188;5.712;2023-02-26T02:01:52;97919.50;;;9.28;47.55
71795;BME280;59641;45.188;5.712;2023-02-26T02:04:18;97925.38;;;9.25;47.52
71795;BME280;59641;45.188;5.712;2023-02-26T02:06:45;97922.63;;;9.20;47.35
71795;BME280;59641;45.188;5.712;2023-02-26T02:09:11;97925.00;;;9.16;47.42
71795;BME280;59641;45.188;5.712;2023-02-26T02:14:23;97932.69;;;9.13;47.50
71795;BME280;59641;45.188;5.712;2023-02-26T02:17:07;97924.59;;;9.08;47.20
71795;BME280;59641;45.188;5.712;2023-02-26T02:22:45;97917.00;;;9.00;47.56
71795;BME280;59641;45.188;5.712;2023-02-26T02:28:30;97908.56;;;8.91;47.29
71795;BME280;59641;45.188;5.712;2023-02-26T02:31:10;97901.59;;;8.90;47.38
71795;BME280;59641;45.188;5.712;2023-02-26T02:33:45;97900.69;;;8.84;47.04
71795;BME280;59641;45.188;5.712;2023-02-26T02:36:19;97902.00;;;8.82;47.35
71795;BME280;59641;45.188;5.712;2023-02-26T02:38:51;97904.66;;;8.82;47.40
71795;BME280;59641;45.188;5.712;2023-02-26T02:41:23;97901.41;;;8.80;47.33
71795;BME280;59641;45.188;5.712;2023-02-26T02:43:51;97896.34;;;8.78;47.29
71795;BME280;59641;45.188;5.712;2023-02-26T02:46:29;97897.13;;;8.79;47.23
71795;BME280;59641;45.188;5.712;2023-02-26T02:49:15;97902.72;;;8.77;47.02
71795;BME280;59641;45.188;5.712;2023-02-26T02:51:54;97896.50;;;8.71;46.97
71795;BME280;59641;45.188;5.712;2023-02-26T02:54:28;97912.19;;;8.68;47.00
71795;BME280;59641;45.188;5.712;2023-02-26T02:57:02;97900.94;;;8.66;46.86
71795;BME280;59641;45.188;5.712;2023-02-26T02:59:45;97899.56;;;8.63;46.72
71795;BME280;59641;45.188;5.712;2023-02-26T03:02:20;97899.97;;;8.55;46.64
71795;BME280;59641;45.188;5.712;2023-02-26T03:04:48;97906.28;;;8.49;46.55
71795;BME280;59641;45.188;5.712;2023-02-26T03:07:14;97901.41;;;8.46;46.80
71795;BME280;59641;45.188;5.712;2023-02-26T03:09:40;97900.84;;;8.44;46.71
71795;BME280;59641;45.188;5.712;2023-02-26T03:12:06;97890.41;;;8.42;46.73
71795;BME280;59641;45.188;5.712;2023-02-26T03:14:31;97886.09;;;8.41;46.82
71795;BME280;59641;45.188;5.712;2023-02-26T03:19:40;97896.19;;;8.39;46.85
71795;BME280;59641;45.188;5.712;2023-02-26T03:22:21;97893.50;;;8.39;46.67
71795;BME280;59641;45.188;5.712;2023-02-26T03:25:07;97896.94;;;8.35;46.57
71795;BME280;59641;45.188;5.712;2023-02-26T03:35:44;97899.03;;;8.32;46.62
71795;BME280;59641;45.188;5.712;2023-02-26T03:38:17;97903.31;;;8.33;46.51
71795;BME280;59641;45.188;5.712;2023-02-26T03:40:53;97901.44;;;8.34;46.40
71795;BME280;59641;45.188;5.712;2023-02-26T03:43:34;97901.94;;;8.31;46.50
71795;BME280;59641;45.188;5.712;2023-02-26T03:46:05;97902.44;;;8.28;46.59
71795;BME280;59641;45.188;5.712;2023-02-26T03:48:34;97900.56;;;8.28;46.57
71795;BME280;59641;45.188;5.712;2023-02-26T03:51:04;97903.00;;;8.30;46.28
71795;BME280;59641;45.188;5.712;2023-02-26T03:53:57;97912.06;;;8.29;45.94
71795;BME280;59641;45.188;5.712;2023-02-26T03:56:50;97900.69;;;8.22;45.79
71795;BME280;59641;45.188;5.712;2023-02-26T03:59:16;97900.63;;;8.17;46.13
71795;BME280;59641;45.188;5.712;2023-02-26T04:01:55;97905.16;;;8.16;46.11
71795;BME280;59641;45.188;5.712;2023-02-26T04:04:38;97900.03;;;8.15;45.97
71795;BME280;59641;45.188;5.712;2023-02-26T04:07:08;97889.84;;;8.11;46.19
71795;BME280;59641;45.188;5.712;2023-02-26T04:09:34;97889.63;;;8.13;45.80
71795;BME280;59641;45.188;5.712;2023-02-26T04:12:00;97901.81;;;8.09;45.75
71795;BME280;59641;45.188;5.712;2023-02-26T04:14:25;97891.03;;;8.04;46.01
71795;BME280;59641;45.188;5.712;2023-02-26T04:16:50;97888.38;;;8.04;46.08
71795;BME280;59641;45.188;5.712;2023-02-26T04:19:16;97896.47;;;8.09;46.08
71795;BME280;59641;45.188;5.712;2023-02-26T04:21:41;97894.84;;;8.08;46.24
71795;BME280;59641;45.188;5.712;2023-02-26T04:24:06;97890.34;;;8.08;45.92
71795;BME280;59641;45.188;5.712;2023-02-26T04:26:32;97888.78;;;8.13;46.08
71795;BME280;59641;45.188;5.712;2023-02-26T04:28:57;97881.34;;;8.15;46.17
71795;BME280;59641;45.188;5.712;2023-02-26T04:31:22;97873.91;;;8.17;46.24
71795;BME280;59641;45.188;5.712;2023-02-26T04:33:48;97878.75;;;8.20;46.03
71795;BME280;59641;45.188;5.712;2023-02-26T04:36:13;97879.91;;;8.24;46.18
71795;BME280;59641;45.188;5.712;2023-02-26T04:38:39;97879.19;;;8.28;46.10
71795;BME280;59641;45.188;5.712;2023-02-26T04:41:04;97876.50;;;8.28;45.17
71795;BME280;59641;45.188;5.712;2023-02-26T04:43:30;97877.81;;;8.26;45.52
71795;BME280;59641;45.188;5.712;2023-02-26T04:45:56;97875.94;;;8.26;45.62
71795;BME280;59641;45.188;5.712;2023-02-26T04:48:21;97877.22;;;8.24;45.25
71795;BME280;59641;45.188;5.712;2023-02-26T04:50:46;97877.72;;;8.21;44.97
71795;BME280;59641;45.188;5.712;2023-02-26T04:53:12;97886.19;;;8.18;45.38
71795;BME280;59641;45.188;5.712;2023-02-26T04:55:38;97884.00;;;8.15;45.41
71795;BME280;59641;45.188;5.712;2023-02-26T04:58:05;97875.69;;;8.11;45.71
71795;BME280;59641;45.188;5.712;2023-02-26T05:00:31;97870.91;;;8.13;45.39
71795;BME280;59641;45.188;5.712;2023-02-26T05:02:56;97876.25;;;8.13;45.31
71795;BME280;59641;45.188;5.712;2023-02-26T05:05:22;97872.53;;;8.14;45.41
71795;BME280;59641;45.188;5.712;2023-02-26T05:07:47;97869.34;;;8.17;45.17
71795;BME280;59641;45.188;5.712;2023-02-26T05:10:13;97876.00;;;8.15;45.36
71795;BME280;59641;45.188;5.712;2023-02-26T05:12:38;97870.34;;;8.11;45.04
71795;BME280;59641;45.188;5.712;2023-02-26T05:15:04;97865.00;;;8.11;45.43
71795;BME280;59641;45.188;5.712;2023-02-26T05:17:30;97859.88;;;8.09;45.29
71795;BME280;59641;45.188;5.712;2023-02-26T05:19:55;97861.75;;;8.09;45.26
71795;BME280;59641;45.188;5.712;2023-02-26T05:22:21;97861.75;;;8.09;45.17
71795;BME280;59641;45.188;5.712;2023-02-26T05:24:46;97861.41;;;8.05;45.29
71795;BME280;59641;45.188;5.712;2023-02-26T05:27:12;97856.06;;;8.05;44.91
71795;BME280;59641;45.188;5.712;2023-02-26T05:29:37;97859.22;;;8.02;45.16
71795;BME280;59641;45.188;5.712;2023-02-26T05:32:05;97853.31;;;8.00;45.43
71795;BME280;59641;45.188;5.712;2023-02-26T05:34:30;97854.09;;;8.01;45.42
71795;BME280;59641;45.188;5.712;2023-02-26T05:36:55;97843.69;;;7.99;45.39
71795;BME280;59641;45.188;5.712;2023-02-26T05:39:21;97845.06;;;8.02;45.33
71795;BME280;59641;45.188;5.712;2023-02-26T05:41:46;97845.88;;;8.02;45.37
71795;BME280;59641;45.188;5.712;2023-02-26T05:44:12;97856.22;;;7.99;45.36
71795;BME280;59641;45.188;5.712;2023-02-26T05:46:37;97846.84;;;7.96;45.30
71795;BME280;59641;45.188;5.712;2023-02-26T05:49:03;97839.84;;;7.95;45.31
71795;BME280;59641;45.188;5.712;2023-02-26T05:51:28;97833.63;;;7.89;45.31
71795;BME280;59641;45.188;5.712;2023-02-26T05:53:54;97829.56;;;7.87;45.23
71795;BME280;59641;45.188;5.712;2023-02-26T05:56:19;97843.38;;;7.84;45.36
71795;BME280;59641;45.188;5.712;2023-02-26T05:58:45;97830.88;;;7.84;45.27
71795;BME280;59641;45.188;5.712;2023-02-26T06:01:10;97840.25;;;7.87;45.50
71795;BME280;59641;45.188;5.712;2023-02-26T06:03:35;97833.06;;;7.87;45.47
71795;BME280;59641;45.188;5.712;2023-02-26T06:06:01;97830.38;;;7.87;45.38
71795;BME280;59641;45.188;5.712;2023-02-26T06:08:26;97837.91;;;7.90;45.20
71795;BME280;59641;45.188;5.712;2023-02-26T06:10:52;97843.16;;;7.85;45.30
71795;BME280;59641;45.188;5.712;2023-02-26T06:13:17;97830.28;;;7.82;45.17
71795;BME280;59641;45.188;5.712;2023-02-26T06:15:43;97828.09;;;7.79;45.40
71795;BME280;59641;45.188;5.712;2023-02-26T06:18:08;97832.31;;;7.75;45.49
71795;BME280;59641;45.188;5.712;2023-02-26T06:20:34;97840.22;;;7.70;45.60
71795;BME280;59641;45.188;5.712;2023-02-26T06:22:59;97839.06;;;7.66;45.60
71795;BME280;59641;45.188;5.712;2023-02-26T06:25:25;97846.72;;;7.62;45.44
71795;BME280;59641;45.188;5.712;2023-02-26T06:27:50;97841.38;;;7.62;45.81
71795;BME280;59641;45.188;5.712;2023-02-26T06:30:16;97846.97;;;7.61;45.85
71795;BME280;59641;45.188;5.712;2023-02-26T06:32:42;97843.50;;;7.60;45.90
71795;BME280;59641;45.188;5.712;2023-02-26T06:35:08;97847.78;;;7.61;45.74
71795;BME280;59641;45.188;5.712;2023-02-26T06:37:34;97858.13;;;7.58;45.85
71795;BME280;59641;45.188;5.712;2023-02-26T06:39:59;97854.41;;;7.59;45.84
71795;BME280;59641;45.188;5.712;2023-02-26T06:42:25;97857.31;;;7.57;45.80
71795;BME280;59641;45.188;5.712;2023-02-26T06:44:50;97859.66;;;7.54;45.77
71795;BME280;59641;45.188;5.712;2023-02-26T06:47:15;97867.44;;;7.55;45.93
71795;BME280;59641;45.188;5.712;2023-02-26T06:49:41;97875.66;;;7.54;46.02
71795;BME280;59641;45.188;5.712;2023-02-26T06:52:06;97869.53;;;7.53;45.69
71795;BME280;59641;45.188;5.712;2023-02-26T06:54:32;97864.41;;;7.52;45.86
71795;BME280;59641;45.188;5.712;2023-02-26T06:56:57;97854.53;;;7.52;45.78
71795;BME280;59641;45.188;5.712;2023-02-26T06:59:23;97864.09;;;7.48;45.77
71795;BME280;59641;45.188;5.712;2023-02-26T07:01:49;97869.06;;;7.44;45.64
71795;BME280;59641;45.188;5.712;2023-02-26T07:04:14;97878.00;;;7.38;45.38
71795;BME280;59641;45.188;5.712;2023-02-26T07:06:40;97868.38;;;7.37;45.92
71795;BME280;59641;45.188;5.712;2023-02-26T07:09:05;97867.81;;;7.35;45.82
71795;BME280;59641;45.188;5.712;2023-02-26T07:11:31;97862.72;;;7.34;45.91
71795;BME280;59641;45.188;5.712;2023-02-26T07:13:56;97868.78;;;7.29;45.52
71795;BME280;59641;45.188;5.712;2023-02-26T07:16:21;97884.78;;;7.29;45.98
71795;BME280;59641;45.188;5.712;2023-02-26T07:18:47;97875.38;;;7.27;45.97
71795;BME280;59641;45.188;5.712;2023-02-26T07:21:12;97867.84;;;7.23;45.95
71795;BME280;59641;45.188;5.712;2023-02-26T07:23:38;97871.78;;;7.21;45.83
71795;BME280;59641;45.188;5.712;2023-02-26T07:26:04;97872.47;;;7.16;45.79
71795;BME280;59641;45.188;5.712;2023-02-26T07:28:29;97865.53;;;7.15;46.07
71795;BME280;59641;45.188;5.712;2023-02-26T07:30:55;97872.84;;;7.20;46.13
71795;BME280;59641;45.188;5.712;2023-02-26T07:33:20;97877.47;;;7.24;46.12
71795;BME280;59641;45.188;5.712;2023-02-26T07:35:46;97865.41;;;7.22;46.20
71795;BME280;59641;45.188;5.712;2023-02-26T07:38:12;97865.16;;;7.23;46.20
71795;BME280;59641;45.188;5.712;2023-02-26T07:40:37;97859.59;;;7.25;45.93
71795;BME280;59641;45.188;5.712;2023-02-26T07:43:03;97862.06;;;7.27;46.14
71795;BME280;59641;45.188;5.712;2023-02-26T07:45:28;97870.06;;;7.27;45.86
71795;BME280;59641;45.188;5.712;2023-02-26T07:47:53;97868.19;;;7.27;45.82
71795;BME280;59641;45.188;5.712;2023-02-26T07:50:19;97867.13;;;7.28;45.95
71795;BME280;59641;45.188;5.712;2023-02-26T07:52:46;97874.69;;;7.31;45.83
71795;BME280;59641;45.188;5.712;2023-02-26T07:55:13;97864.56;;;7.33;45.63
71795;BME280;59641;45.188;5.712;2023-02-26T07:57:38;97859.81;;;7.35;45.86
71795;BME280;59641;45.188;5.712;2023-02-26T08:00:05;97864.34;;;7.35;45.44
71795;BME280;59641;45.188;5.712;2023-02-26T08:02:31;97873.16;;;7.35;45.45
71795;BME280;59641;45.188;5.712;2023-02-26T08:04:56;97867.59;;;7.37;45.34
71795;BME280;59641;45.188;5.712;2023-02-26T08:07:22;97865.72;;;7.37;45.45
71795;BME280;59641;45.188;5.712;2023-02-26T08:09:47;97871.88;;;7.38;45.25
71795;BME280;59641;45.188;5.712;2023-02-26T08:12:13;97871.88;;;7.38;45.41
71795;BME280;59641;45.188;5.712;2023-02-26T08:14:38;97863.63;;;7.39;45.40
71795;BME280;59641;45.188;5.712;2023-02-26T08:17:06;97871.75;;;7.44;44.93
71795;BME280;59641;45.188;5.712;2023-02-26T08:19:32;97873.59;;;7.44;44.97
71795;BME280;59641;45.188;5.712;2023-02-26T08:21:57;97860.75;;;7.41;44.78
71795;BME280;59641;45.188;5.712;2023-02-26T08:24:22;97864.13;;;7.36;44.50
71795;BME280;59641;45.188;5.712;2023-02-26T08:26:48;97872.34;;;7.35;44.72
71795;BME280;59641;45.188;5.712;2023-02-26T08:29:13;97859.47;;;7.32;44.41
71795;BME280;59641;45.188;5.712;2023-02-26T08:31:39;97871.75;;;7.33;44.52
71795;BME280;59641;45.188;5.712;2023-02-26T08:34:04;97881.63;;;7.32;44.41
71795;BME280;59641;45.188;5.712;2023-02-26T08:36:30;97877.09;;;7.33;44.23
71795;BME280;59641;45.188;5.712;2023-02-26T08:38:56;97876.19;;;7.27;43.75
71795;BME280;59641;45.188;5.712;2023-02-26T08:41:21;97884.41;;;7.25;44.13
71795;BME280;59641;45.188;5.712;2023-02-26T08:43:47;97885.47;;;7.24;43.63
71795;BME280;59641;45.188;5.712;2023-02-26T08:46:13;97891.03;;;7.23;43.68
71795;BME280;59641;45.188;5.712;2023-02-26T08:48:38;97893.94;;;7.21;43.83
71795;BME280;59641;45.188;5.712;2023-02-26T08:51:03;97900.31;;;7.20;43.79
71795;BME280;59641;45.188;5.712;2023-02-26T08:53:29;97891.03;;;7.23;43.87
71795;BME280;59641;45.188;5.712;2023-02-26T08:55:54;97902.28;;;7.25;43.38
71795;BME280;59641;45.188;5.712;2023-02-26T08:58:20;97908.91;;;7.22;43.25
71795;BME280;59641;45.188;5.712;2023-02-26T09:00:46;97904.38;;;7.23;42.89
71795;BME280;59641;45.188;5.712;2023-02-26T09:03:12;97890.94;;;7.18;42.93
71795;BME280;59641;45.188;5.712;2023-02-26T09:05:37;97915.75;;;7.18;43.18
71795;BME280;59641;45.188;5.712;2023-02-26T09:08:05;97911.47;;;7.17;42.18
71795;BME280;59641;45.188;5.712;2023-02-26T09:10:31;97913.88;;;7.19;42.23
71795;BME280;59641;45.188;5.712;2023-02-26T09:12:56;97913.88;;;7.19;42.42
71795;BME280;59641;45.188;5.712;2023-02-26T09:15:21;97906.94;;;7.18;41.99
71795;BME280;59641;45.188;5.712;2023-02-26T09:17:47;97909.38;;;7.19;42.76
71795;BME280;59641;45.188;5.712;2023-02-26T09:20:13;97905.44;;;7.22;42.40
71795;BME280;59641;45.188;5.712;2023-02-26T09:22:38;97900.91;;;7.22;42.28
71795;BME280;59641;45.188;5.712;2023-02-26T09:25:04;97914.03;;;7.24;42.34
71795;BME280;59641;45.188;5.712;2023-02-26T09:27:31;97918.06;;;7.27;42.16
71795;BME280;59641;45.188;5.712;2023-02-26T09:29:56;97913.53;;;7.27;42.00
71795;BME280;59641;45.188;5.712;2023-02-26T09:32:21;97927.69;;;7.28;41.58
71795;BME280;59641;45.188;5.712;2023-02-26T09:34:47;97926.63;;;7.29;41.35
71795;BME280;59641;45.188;5.712;2023-02-26T09:37:13;97929.88;;;7.31;41.50
71795;BME280;59641;45.188;5.712;2023-02-26T09:39:38;97917.13;;;7.33;41.41
71795;BME280;59641;45.188;5.712;2023-02-26T09:42:33;97927.91;;;7.38;40.80
71795;BME280;59641;45.188;5.712;2023-02-26T09:45:02;97928.16;;;7.36;40.71
71795;BME280;59641;45.188;5.712;2023-02-26T09:47:34;97922.00;;;7.36;40.83
71795;BME280;59641;45.188;5.712;2023-02-26T09:50:12;97930.81;;;7.36;40.54
71795;BME280;59641;45.188;5.712;2023-02-26T09:52:46;97922.56;;;7.38;40.39
71795;BME280;59641;45.188;5.712;2023-02-26T09:57:54;97931.84;;;7.35;40.39
71795;BME280;59641;45.188;5.712;2023-02-26T10:00:35;97927.09;;;7.37;40.35
71795;BME280;59641;45.188;5.712;2023-02-26T10:03:16;97937.06;;;7.42;40.17
71795;BME280;59641;45.188;5.712;2023-02-26T10:08:44;97938.84;;;7.36;39.88
71795;BME280;59641;45.188;5.712;2023-02-26T10:14:08;97928.84;;;7.43;39.67
71795;BME280;59641;45.188;5.712;2023-02-26T10:16:40;97938.69;;;7.43;39.43
71795;BME280;59641;45.188;5.712;2023-02-26T10:19:11;97949.13;;;7.44;39.40
71795;BME280;59641;45.188;5.712;2023-02-26T10:21:43;97943.78;;;7.44;39.16
71795;BME280;59641;45.188;5.712;2023-02-26T10:24:22;97935.00;;;7.44;38.94
71795;BME280;59641;45.188;5.712;2023-02-26T10:26:59;97936.38;;;7.46;38.86
71795;BME280;59641;45.188;5.712;2023-02-26T10:29:36;97937.97;;;7.47;38.85
71795;BME280;59641;45.188;5.712;2023-02-26T10:35:02;97945.53;;;7.51;38.58
71795;BME280;59641;45.188;5.712;2023-02-26T10:40:07;97959.31;;;7.59;38.94
71795;BME280;59641;45.188;5.712;2023-02-26T10:42:48;97947.13;;;7.63;38.21
71795;BME280;59641;45.188;5.712;2023-02-26T10:51:14;97962.94;;;7.53;36.57
71795;BME280;59641;45.188;5.712;2023-02-26T10:53:44;97964.34;;;7.56;36.49
71795;BME280;59641;45.188;5.712;2023-02-26T10:56:23;97963.84;;;7.59;36.91
71795;BME280;59641;45.188;5.712;2023-02-26T10:58:50;97958.28;;;7.60;37.28
71795;BME280;59641;45.188;5.712;2023-02-26T11:01:18;97949.59;;;7.65;37.87
71795;BME280;59641;45.188;5.712;2023-02-26T11:03:46;97953.16;;;7.71;37.61
71795;BME280;59641;45.188;5.712;2023-02-26T11:06:23;97945.81;;;7.78;37.54
71795;BME280;59641;45.188;5.712;2023-02-26T11:08:54;97938.97;;;7.82;36.97
71795;BME280;59641;45.188;5.712;2023-02-26T11:11:39;97954.66;;;7.78;36.84
71795;BME280;59641;45.188;5.712;2023-02-26T11:14:08;97951.41;;;7.76;36.95
71795;BME280;59641;45.188;5.712;2023-02-26T11:16:34;97952.69;;;7.74;36.84
71795;BME280;59641;45.188;5.712;2023-02-26T11:19:05;97950.25;;;7.72;37.08
71795;BME280;59641;45.188;5.712;2023-02-26T11:21:39;97941.50;;;7.77;36.95
71795;BME280;59641;45.188;5.712;2023-02-26T11:24:10;97951.66;;;7.75;36.71
71795;BME280;59641;45.188;5.712;2023-02-26T11:26:38;97941.19;;;7.73;37.04
71795;BME280;59641;45.188;5.712;2023-02-26T11:29:14;97943.16;;;7.78;36.77
71795;BME280;59641;45.188;5.712;2023-02-26T11:31:40;97950.59;;;7.76;36.87
71795;BME280;59641;45.188;5.712;2023-02-26T11:34:08;97937.59;;;7.79;37.05
71795;BME280;59641;45.188;5.712;2023-02-26T11:36:38;97964.28;;;7.79;35.76
71795;BME280;59641;45.188;5.712;2023-02-26T11:39:14;97944.75;;;7.79;36.91
71795;BME280;59641;45.188;5.712;2023-02-26T11:41:41;97948.59;;;7.83;36.71
71795;BME280;59641;45.188;5.712;2023-02-26T11:44:18;97925.03;;;7.80;36.54
71795;BME280;59641;45.188;5.712;2023-02-26T11:46:51;97939.91;;;7.76;37.07
71795;BME280;59641;45.188;5.712;2023-02-26T11:49:21;97930.59;;;7.78;36.31
71795;BME280;59641;45.188;5.712;2023-02-26T11:52:04;97938.41;;;7.80;37.15
71795;BME280;59641;45.188;5.712;2023-02-26T11:54:34;97925.84;;;7.80;36.85
71795;BME280;59641;45.188;5.712;2023-02-26T11:57:04;97925.13;;;7.85;36.90
71795;BME280;59641;45.188;5.712;2023-02-26T11:59:31;97929.78;;;7.89;36.83
71795;BME280;59641;45.188;5.712;2023-02-26T12:02:02;97927.69;;;7.92;36.49
71795;BME280;59641;45.188;5.712;2023-02-26T12:04:38;97925.47;;;7.88;35.99
71795;BME280;59641;45.188;5.712;2023-02-26T12:07:12;97918.75;;;7.86;35.94
71795;BME280;59641;45.188;5.712;2023-02-26T12:09:38;97919.09;;;7.89;36.59
71795;BME280;59641;45.188;5.712;2023-02-26T12:22:50;97943.72;;;7.92;36.29
71795;BME280;59641;45.188;5.712;2023-02-26T12:33:38;97941.59;;;7.94;35.49
71795;BME280;59641;45.188;5.712;2023-02-26T12:41:50;97938.56;;;8.02;36.54
71795;BME280;59641;45.188;5.712;2023-02-26T13:01:06;97935.34;;;8.17;35.35
71795;BME280;59641;45.188;5.712;2023-02-26T13:04:38;97933.16;;;8.14;35.14
71795;BME280;59641;45.188;5.712;2023-02-26T13:09:44;97928.41;;;8.16;35.58
71795;BME280;59641;45.188;5.712;2023-02-26T13:15:31;97936.50;;;8.21;35.68
71795;BME280;59641;45.188;5.712;2023-02-26T13:21:01;97931.97;;;8.21;35.51
71795;BME280;59641;45.188;5.712;2023-02-26T13:23:44;97926.03;;;8.19;35.76
71795;BME280;59641;45.188;5.712;2023-02-26T13:26:14;97920.22;;;8.22;35.03
71795;BME280;59641;45.188;5.712;2023-02-26T13:28:49;97926.53;;;8.16;34.84
71795;BME280;59641;45.188;5.712;2023-02-26T13:31:30;97918.16;;;8.13;34.90
71795;BME280;59641;45.188;5.712;2023-02-26T13:34:33;97919.94;;;8.07;34.95
71795;BME280;59641;45.188;5.712;2023-02-26T13:36:46;97924.22;;;8.08;34.97
71795;BME280;59641;45.188;5.712;2023-02-26T13:39:35;97919.63;;;8.03;35.03
71795;BME280;59641;45.188;5.712;2023-02-26T13:50:32;97915.75;;;8.11;35.19
71795;BME280;59641;45.188;5.712;2023-02-26T13:53:03;97913.53;;;8.08;34.69
71795;BME280;59641;45.188;5.712;2023-02-26T14:00:57;97911.84;;;8.02;34.64
71795;BME280;59641;45.188;5.712;2023-02-26T14:05:56;97914.28;;;8.03;34.51
71795;BME280;59641;45.188;5.712;2023-02-26T14:11:25;97904.84;;;8.01;34.26
71795;BME280;59641;45.188;5.712;2023-02-26T14:14:13;97912.06;;;8.00;34.28
71795;BME280;59641;45.188;5.712;2023-02-26T14:16:42;97912.16;;;8.05;33.95
71795;BME280;59641;45.188;5.712;2023-02-26T14:24:34;97906.50;;;8.02;34.65
71795;BME280;59641;45.188;5.712;2023-02-26T14:29:40;97902.63;;;8.09;34.67
71795;BME280;59641;45.188;5.712;2023-02-26T14:34:44;97897.63;;;8.13;34.27
71795;BME280;59641;45.188;5.712;2023-02-26T14:37:14;97893.31;;;8.12;34.20
71795;BME280;59641;45.188;5.712;2023-02-26T14:45:07;97873.25;;;8.09;34.31
71795;BME280;59641;45.188;5.712;2023-02-26T14:47:35;97890.06;;;8.10;33.98
71795;BME280;59641;45.188;5.712;2023-02-26T14:50:01;97893.81;;;8.09;34.14
71795;BME280;59641;45.188;5.712;2023-02-26T15:00:32;97887.31;;;8.05;34.19
71795;BME280;59641;45.188;5.712;2023-02-26T15:24:54;97916.69;;;7.76;34.06
71795;BME280;59641;45.188;5.712;2023-02-26T15:27:20;97927.63;;;7.75;34.02
71795;BME280;59641;45.188;5.712;2023-02-26T15:29:47;97924.38;;;7.73;34.28
71795;BME280;59641;45.188;5.712;2023-02-26T15:32:16;97934.47;;;7.71;34.28
71795;BME280;59641;45.188;5.712;2023-02-26T15:34:47;97946.19;;;7.69;34.46
71795;BME280;59641;45.188;5.712;2023-02-26T15:37:22;97960.09;;;7.72;34.68
71795;BME280;59641;45.188;5.712;2023-02-26T15:39:49;97959.06;;;7.73;34.30
71795;BME280;59641;45.188;5.712;2023-02-26T15:42:16;97957.91;;;7.68;34.36
71795;BME280;59641;45.188;5.712;2023-02-26T15:44:43;97958.13;;;7.67;34.63
71795;BME280;59641;45.188;5.712;2023-02-26T15:47:08;97956.06;;;7.69;34.77
71795;BME280;59641;45.188;5.712;2023-02-26T15:49:37;97966.28;;;7.72;34.51
71795;BME280;59641;45.188;5.712;2023-02-26T15:52:06;97968.38;;;7.70;34.64
71795;BME280;59641;45.188;5.712;2023-02-26T15:54:38;97976.03;;;7.66;34.55
71795;BME280;59641;45.188;5.712;2023-02-26T15:57:04;97979.16;;;7.63;34.73
71795;BME280;59641;45.188;5.712;2023-02-26T15:59:31;97979.75;;;7.65;34.80
71795;BME280;59641;45.188;5.712;2023-02-26T16:02:00;97982.16;;;7.67;35.03
71795;BME280;59641;45.188;5.712;2023-02-26T16:04:26;97983.00;;;7.67;34.95
71795;BME280;59641;45.188;5.712;2023-02-26T16:06:54;97984.28;;;7.65;35.25
71795;BME280;59641;45.188;5.712;2023-02-26T16:09:28;97982.44;;;7.65;35.02
71795;BME280;59641;45.188;5.712;2023-02-26T16:11:58;97981.16;;;7.68;35.34
71795;BME280;59641;45.188;5.712;2023-02-26T16:14:29;97983.44;;;7.64;35.08